This is the latest recevied weather packets stored in our database for station/object GW1482. If no packets are shown the sender has not sent any weather packets the latest 10 day(s).
| Time | Temp. | Humidity | Pressure | Rain* | Wind** | Luminosity | Snow |
|---|---|---|---|---|---|---|---|
| 1777715864 | 1.67° C | 95% | 1000.6 hPa | 0 mm | - | - | - |
| 1777715125 | 1.67° C | 95% | 1000.6 hPa | 0 mm | - | - | - |
| 1777714411 | 1.67° C | 95% | 1000.6 hPa | 0 mm | - | - | - |
| 1777713351 | 1.67° C | 95% | 1000.6 hPa | 0 mm | - | - | - |
| 1777711177 | 2.22° C | 94% | 1000.3 hPa | 0 mm | - | - | - |
| 1777709024 | 2.22° C | 92% | 1000.6 hPa | 0 mm | - | - | - |
| 1777705418 | 2.22° C | 89% | 1000.3 hPa | 0 mm | - | - | - |
| 1777705032 | 2.78° C | 89% | 1000.6 hPa | 0 mm | - | - | - |
| 1777698588 | 5° C | 79% | 1001 hPa | 0 mm | - | - | - |
| 1777696791 | 5° C | 80% | 1001 hPa | 0 mm | - | - | - |
| 1777693193 | 6.67° C | 86% | 1001 hPa | 0 mm | - | - | - |
| 1777689589 | 7.22° C | 83% | 1001 hPa | 0 mm | - | - | - |
| 1777685993 | 7.22° C | 83% | 1000.6 hPa | 0 mm | - | - | - |
| 1777684176 | 7.78° C | 81% | 1000.3 hPa | 0 mm | - | - | - |
| 1777683078 | 7.78° C | 82% | 1000 hPa | 0 mm | - | - | - |
| 1777682355 | 7.78° C | 81% | 1000 hPa | 0 mm | - | - | - |
| 1777680563 | 8.89° C | 82% | 998.9 hPa | 0 mm | - | - | - |
| 1777678410 | 9.44° C | 79% | 998.6 hPa | 0 mm | - | - | - |
| 1777676956 | 10° C | 75% | 998.3 hPa | 0 mm | - | - | - |
| 1777672640 | 13.89° C | 53% | 997.2 hPa | 0 mm | - | - | - |
| 1777672289 | 13.33° C | 52% | 997.2 hPa | 0 mm | - | - | - |
| 1777671204 | 14.44° C | 46% | 997.2 hPa | 0 mm | - | - | - |
| 1777669783 | 14.44° C | 40% | 996.9 hPa | 0 mm | - | - | - |
| 1777669415 | 15° C | 39% | 996.9 hPa | 0 mm | - | - | - |
| 1777666187 | 16.67° C | 34% | 996.6 hPa | 0 mm | - | - | - |
* Rain since midnight (hover to see other rain measurements)
** Current wind speed in m/s (hover to see current wind gust speed)